createdAt,value
2023-05-21T00:02:19.898Z,101477.97
2023-05-21T00:04:47.496Z,101476.56
2023-05-21T00:07:15.216Z,101471.19
2023-05-21T00:09:41.747Z,101464.88
2023-05-21T00:12:09.253Z,101465.47
2023-05-21T00:14:36.523Z,101464.56
2023-05-21T00:17:03.278Z,101458.81
2023-05-21T00:19:29.857Z,101451.56
2023-05-21T00:21:57.588Z,101458.66
2023-05-21T00:24:24.091Z,101464.41
2023-05-21T00:26:50.638Z,101454.69
2023-05-21T00:29:17.106Z,101451.81
2023-05-21T00:31:43.531Z,101444.66
2023-05-21T00:34:09.995Z,101440.41
2023-05-21T00:36:36.500Z,101442.94
2023-05-21T00:39:04.555Z,101439.75
2023-05-21T00:41:31.151Z,101431.69
2023-05-21T00:44:00.154Z,101438.66
2023-05-21T00:46:28.461Z,101443.56
2023-05-21T00:48:55.463Z,101439.09
2023-05-21T00:51:22.281Z,101441.69
2023-05-21T00:53:52.487Z,101438.72
2023-05-21T00:56:22.676Z,101440.00
2023-05-21T00:58:51.807Z,101431.91
2023-05-21T01:01:19.353Z,101434.56
2023-05-21T01:03:48.637Z,101428.88
2023-05-21T01:06:15.981Z,101429.69
2023-05-21T01:08:42.589Z,101422.25
2023-05-21T01:11:10.710Z,101420.78
2023-05-21T01:13:41.316Z,101415.53
2023-05-21T01:16:08.975Z,101423.50
2023-05-21T01:18:37.802Z,101414.41
2023-05-21T01:21:05.426Z,101416.22
2023-05-21T01:23:32.131Z,101408.25
2023-05-21T01:25:58.758Z,101409.81
2023-05-21T01:28:25.255Z,101406.38
2023-05-21T01:30:51.972Z,101400.19
2023-05-21T01:33:26.017Z,101402.47
2023-05-21T01:36:13.837Z,101395.59
2023-05-21T01:38:45.738Z,101400.34
2023-05-21T01:41:14.135Z,101394.19
2023-05-21T01:43:43.929Z,101396.94
2023-05-21T01:46:13.856Z,101394.47
2023-05-21T01:48:41.860Z,101393.78
2023-05-21T01:51:08.725Z,101394.84
2023-05-21T01:53:35.669Z,101384.78
2023-05-21T01:56:02.775Z,101375.81
2023-05-21T01:58:29.221Z,101380.66
2023-05-21T02:00:56.952Z,101376.97
2023-05-21T02:03:25.811Z,101374.91
2023-05-21T02:05:52.944Z,101376.72
2023-05-21T02:08:20.061Z,101372.13
2023-05-21T02:10:46.500Z,101371.19
2023-05-21T02:13:12.937Z,101364.28
2023-05-21T02:15:40.218Z,101367.97
2023-05-21T02:18:06.891Z,101367.09
2023-05-21T02:20:33.353Z,101364.59
2023-05-21T02:23:00.098Z,101365.53
2023-05-21T02:25:26.562Z,101364.56
2023-05-21T02:27:53.933Z,101360.31
2023-05-21T02:30:20.906Z,101358.44
2023-05-21T02:32:48.692Z,101357.28
2023-05-21T02:35:15.721Z,101355.50
2023-05-21T02:37:43.914Z,101355.06
2023-05-21T02:40:11.336Z,101355.00
2023-05-21T02:42:40.121Z,101353.13
2023-05-21T02:45:11.493Z,101349.97
2023-05-21T02:47:38.648Z,101340.19
2023-05-21T02:50:07.616Z,101343.31
2023-05-21T02:52:34.194Z,101341.38
2023-05-21T02:55:00.780Z,101340.78
2023-05-21T02:57:27.266Z,101335.47
2023-05-21T02:59:53.704Z,101335.44
2023-05-21T03:02:20.202Z,101334.84
2023-05-21T03:04:46.790Z,101325.59
2023-05-21T03:07:14.612Z,101323.69
2023-05-21T03:09:44.297Z,101329.78
2023-05-21T03:12:10.992Z,101326.56
2023-05-21T03:14:37.779Z,101327.88
2023-05-21T03:17:07.734Z,101324.72
2023-05-21T03:19:35.840Z,101327.06
2023-05-21T03:22:03.887Z,101334.59
2023-05-21T03:24:30.716Z,101334.50
2023-05-21T03:26:57.469Z,101338.56
2023-05-21T03:29:23.978Z,101331.13
2023-05-21T03:31:52.881Z,101330.88
2023-05-21T03:34:20.240Z,101333.06
2023-05-21T03:36:47.644Z,101331.41
2023-05-21T03:39:14.259Z,101323.75
2023-05-21T03:41:40.844Z,101330.88
2023-05-21T03:44:07.807Z,101326.81
2023-05-21T03:46:34.367Z,101326.97
2023-05-21T03:49:00.915Z,101332.34
2023-05-21T03:51:27.703Z,101336.84
2023-05-21T03:53:54.176Z,101334.28
2023-05-21T03:56:21.476Z,101331.41
2023-05-21T03:58:48.055Z,101331.06
2023-05-21T04:01:14.602Z,101329.91
2023-05-21T04:03:41.325Z,101329.81
2023-05-21T04:06:10.099Z,101335.84
2023-05-21T04:08:37.995Z,101331.22
2023-05-21T04:11:04.661Z,101337.88
2023-05-21T04:13:31.147Z,101329.91
2023-05-21T04:15:57.647Z,101333.75
2023-05-21T04:18:25.869Z,101337.72
2023-05-21T04:20:52.682Z,101339.00
2023-05-21T04:23:19.240Z,101340.91
2023-05-21T04:25:45.764Z,101347.75
2023-05-21T04:28:12.225Z,101343.06
2023-05-21T04:30:38.831Z,101343.75
2023-05-21T04:33:05.285Z,101348.28
2023-05-21T04:35:31.907Z,101342.31
2023-05-21T04:37:58.380Z,101348.56
2023-05-21T04:40:24.824Z,101346.31
2023-05-21T04:42:51.349Z,101356.44
2023-05-21T04:45:18.008Z,101346.84
2023-05-21T04:47:44.719Z,101353.00
2023-05-21T04:50:11.832Z,101351.72
2023-05-21T04:52:40.293Z,101360.69
2023-05-21T04:55:09.868Z,101348.84
2023-05-21T04:57:36.642Z,101353.84
2023-05-21T05:00:06.400Z,101361.53
2023-05-21T05:02:32.870Z,101357.44
2023-05-21T05:04:59.872Z,101349.00
2023-05-21T05:07:26.636Z,101348.16
2023-05-21T05:09:53.117Z,101351.19
2023-05-21T05:12:19.581Z,101348.38
2023-05-21T05:14:46.177Z,101346.53
2023-05-21T05:17:15.213Z,101350.81
2023-05-21T05:19:41.700Z,101346.97
2023-05-21T05:22:08.136Z,101353.78
2023-05-21T05:24:34.565Z,101354.81
2023-05-21T05:27:01.052Z,101355.09
2023-05-21T05:29:27.507Z,101364.50
2023-05-21T05:31:54.011Z,101359.47
2023-05-21T05:34:20.618Z,101349.59
2023-05-21T05:36:47.052Z,101356.69
2023-05-21T05:41:40.137Z,101357.06
2023-05-21T05:44:08.425Z,101351.31
2023-05-21T05:46:36.825Z,101351.38
2023-05-21T05:49:03.416Z,101359.41
2023-05-21T05:51:30.258Z,101365.81
2023-05-21T05:53:56.751Z,101359.66
2023-05-21T05:56:23.190Z,101362.00
2023-05-21T05:58:49.630Z,101360.41
2023-05-21T06:01:16.421Z,101364.44
2023-05-21T06:03:43.110Z,101361.31
2023-05-21T06:06:09.727Z,101367.84
2023-05-21T06:08:38.059Z,101362.50
2023-05-21T06:11:04.886Z,101371.44
2023-05-21T06:13:31.994Z,101372.88
2023-05-21T06:15:58.402Z,101375.09
2023-05-21T06:18:24.986Z,101376.78
2023-05-21T06:20:51.443Z,101380.00
2023-05-21T06:23:17.907Z,101377.19
2023-05-21T06:25:44.401Z,101386.00
2023-05-21T06:28:10.900Z,101384.50
2023-05-21T06:30:37.351Z,101385.81
2023-05-21T06:33:03.983Z,101391.91
2023-05-21T06:35:30.727Z,101390.59
2023-05-21T06:37:57.147Z,101391.94
2023-05-21T06:40:23.650Z,101387.31
2023-05-21T06:42:50.160Z,101391.44
2023-05-21T06:45:16.664Z,101384.91
2023-05-21T06:47:43.170Z,101398.84
2023-05-21T06:50:10.018Z,101397.81
2023-05-21T06:52:36.557Z,101392.75
2023-05-21T06:55:03.250Z,101398.22
2023-05-21T06:57:29.695Z,101401.84
2023-05-21T06:59:56.111Z,101398.38
2023-05-21T07:02:22.670Z,101401.59
2023-05-21T07:04:49.186Z,101404.13
2023-05-21T07:07:15.647Z,101407.31
2023-05-21T07:09:42.246Z,101410.91
2023-05-21T07:12:08.666Z,101405.69
2023-05-21T07:14:35.143Z,101403.00
2023-05-21T07:17:01.617Z,101402.66
2023-05-21T07:19:28.174Z,101411.44
2023-05-21T07:21:54.655Z,101410.22
2023-05-21T07:24:21.234Z,101407.44
2023-05-21T07:26:47.737Z,101405.09
2023-05-21T07:29:14.185Z,101399.94
2023-05-21T07:31:40.898Z,101405.88
2023-05-21T07:34:07.424Z,101403.59
2023-05-21T07:36:33.879Z,101400.25
2023-05-21T07:39:00.898Z,101402.63
2023-05-21T07:41:27.393Z,101411.50
2023-05-21T07:43:53.828Z,101419.91
2023-05-21T07:46:20.502Z,101416.75
2023-05-21T07:48:48.279Z,101418.72
2023-05-21T07:51:14.748Z,101417.91
2023-05-21T07:53:41.619Z,101415.13
2023-05-21T07:56:08.342Z,101414.38
2023-05-21T07:58:35.207Z,101417.56
2023-05-21T08:01:01.826Z,101417.53
2023-05-21T08:03:30.829Z,101420.34
2023-05-21T08:05:57.563Z,101414.84
2023-05-21T08:08:24.893Z,101419.22
2023-05-21T08:10:51.351Z,101425.56
2023-05-21T08:13:18.251Z,101415.28
2023-05-21T08:15:44.843Z,101423.63
2023-05-21T08:18:11.897Z,101428.38
2023-05-21T08:20:38.508Z,101431.97
2023-05-21T08:23:05.008Z,101433.56
2023-05-21T08:25:31.473Z,101441.16
2023-05-21T08:27:57.902Z,101437.94
2023-05-21T08:30:24.430Z,101432.41
2023-05-21T08:32:50.965Z,101435.66
2023-05-21T08:35:17.532Z,101439.69
2023-05-21T08:37:43.979Z,101446.88
2023-05-21T08:40:12.161Z,101449.66
2023-05-21T08:42:48.637Z,101449.25
2023-05-21T08:45:20.523Z,101444.53
2023-05-21T08:47:48.049Z,101450.88
2023-05-21T08:50:19.413Z,101451.34
2023-05-21T08:52:46.202Z,101451.75
2023-05-21T08:55:13.137Z,101464.06
2023-05-21T08:57:43.728Z,101458.09
2023-05-21T09:00:11.794Z,101445.78
2023-05-21T09:02:40.797Z,101452.94
2023-05-21T09:05:09.177Z,101451.72
2023-05-21T09:08:13.788Z,101455.69
2023-05-21T09:10:46.445Z,101462.84
2023-05-21T09:13:14.130Z,101464.00
2023-05-21T09:15:41.793Z,101462.41
2023-05-21T09:18:08.474Z,101459.97
2023-05-21T09:20:35.086Z,101469.50
2023-05-21T09:23:06.716Z,101465.91
2023-05-21T09:25:33.426Z,101463.50
2023-05-21T09:27:59.905Z,101461.94
2023-05-21T09:30:34.881Z,101462.28
2023-05-21T09:33:03.378Z,101463.84
2023-05-21T09:35:30.139Z,101466.63
2023-05-21T09:37:57.603Z,101463.44
2023-05-21T09:40:24.409Z,101464.66
2023-05-21T09:42:55.210Z,101470.94
2023-05-21T09:45:26.099Z,101449.06
2023-05-21T09:47:54.179Z,101461.78
2023-05-21T09:50:27.740Z,101455.41
2023-05-21T09:52:55.385Z,101437.84
2023-05-21T09:55:26.559Z,101451.38
2023-05-21T09:57:53.529Z,101450.25
2023-05-21T10:00:28.547Z,101447.00
2023-05-21T10:03:01.190Z,101435.88
2023-05-21T10:05:29.287Z,101445.06
2023-05-21T10:08:04.232Z,101445.47
2023-05-21T10:10:31.790Z,101441.13
2023-05-21T10:13:01.271Z,101439.13
2023-05-21T10:15:31.828Z,101448.25
2023-05-21T10:17:59.615Z,101434.72
2023-05-21T10:20:26.172Z,101432.69
2023-05-21T10:22:53.587Z,101438.56
2023-05-21T10:25:20.735Z,101429.78
2023-05-21T10:27:48.838Z,101429.38
2023-05-21T10:30:18.109Z,101426.16
2023-05-21T10:32:47.689Z,101425.34
2023-05-21T10:35:16.633Z,101417.75
2023-05-21T10:37:46.266Z,101423.25
2023-05-21T10:40:13.480Z,101419.19
2023-05-21T10:42:58.668Z,101415.16
2023-05-21T10:45:59.454Z,101409.94
2023-05-21T10:48:28.699Z,101416.53
2023-05-21T10:51:18.085Z,101412.53
2023-05-21T10:54:21.056Z,101417.16
2023-05-21T10:57:30.035Z,101403.75
2023-05-21T10:59:58.348Z,101407.53
2023-05-21T11:02:26.714Z,101401.91
2023-05-21T11:05:01.353Z,101387.84
2023-05-21T11:07:58.578Z,101389.28
2023-05-21T11:10:41.080Z,101395.16
2023-05-21T11:13:10.887Z,101397.47
2023-05-21T11:16:02.207Z,101391.78
2023-05-21T11:18:37.937Z,101384.72
2023-05-21T11:21:12.300Z,101400.22
2023-05-21T11:23:53.573Z,101391.84
2023-05-21T11:26:22.488Z,101383.59
2023-05-21T11:29:08.585Z,101391.06
2023-05-21T11:31:39.465Z,101389.47
2023-05-21T11:34:29.227Z,101390.72
2023-05-21T11:37:17.582Z,101382.41
2023-05-21T11:39:45.236Z,101380.88
2023-05-21T11:42:11.711Z,101376.16
2023-05-21T11:44:42.221Z,101375.81
2023-05-21T11:47:11.222Z,101373.91
2023-05-21T11:49:38.799Z,101374.31
2023-05-21T11:52:06.850Z,101376.28
2023-05-21T11:54:39.521Z,101382.66
2023-05-21T11:57:10.216Z,101380.56
2023-05-21T11:59:36.957Z,101373.59
2023-05-21T12:02:04.115Z,101378.81
2023-05-21T12:04:37.706Z,101376.72
2023-05-21T12:07:07.183Z,101381.47
2023-05-21T12:09:47.019Z,101370.28
2023-05-21T12:12:18.645Z,101383.59
2023-05-21T12:14:46.597Z,101375.25
2023-05-21T12:17:16.478Z,101382.16
2023-05-21T12:19:46.005Z,101372.50
2023-05-21T12:22:13.016Z,101376.03
2023-05-21T12:24:39.569Z,101376.31
2023-05-21T12:27:09.693Z,101381.91
2023-05-21T12:29:41.656Z,101381.13
2023-05-21T12:32:13.021Z,101383.75
2023-05-21T12:34:51.353Z,101383.34
2023-05-21T12:37:28.132Z,101376.94
2023-05-21T12:39:57.920Z,101386.50
2023-05-21T12:42:27.057Z,101372.94
2023-05-21T12:44:54.371Z,101373.66
2023-05-21T12:47:24.713Z,101373.31
2023-05-21T12:49:55.359Z,101376.47
2023-05-21T12:52:22.348Z,101378.16
2023-05-21T12:54:54.280Z,101372.47
2023-05-21T12:57:25.626Z,101372.19
2023-05-21T12:59:53.747Z,101363.75
2023-05-21T13:02:25.219Z,101369.34
2023-05-21T13:04:57.462Z,101371.03
2023-05-21T13:07:26.182Z,101353.25
2023-05-21T13:09:53.539Z,101358.13
2023-05-21T13:12:22.334Z,101351.81
2023-05-21T13:14:50.857Z,101350.13
2023-05-21T13:17:18.516Z,101338.88
2023-05-21T13:20:09.295Z,101351.94
2023-05-21T13:22:43.795Z,101344.34
2023-05-21T13:25:11.592Z,101352.69
2023-05-21T13:27:38.972Z,101348.25
2023-05-21T13:30:06.535Z,101348.06
2023-05-21T13:32:33.169Z,101351.00
2023-05-21T13:34:59.793Z,101348.84
2023-05-21T13:37:26.324Z,101336.09
2023-05-21T13:39:52.825Z,101343.69
2023-05-21T13:42:19.816Z,101350.56
2023-05-21T13:44:47.143Z,101340.22
2023-05-21T13:47:13.942Z,101333.50
2023-05-21T13:49:40.854Z,101336.31
2023-05-21T13:52:09.061Z,101335.19
2023-05-21T13:54:36.807Z,101332.78
2023-05-21T13:57:03.850Z,101333.63
2023-05-21T13:59:32.628Z,101315.19
2023-05-21T14:02:00.649Z,101322.41
2023-05-21T14:04:27.236Z,101324.88
2023-05-21T14:06:54.105Z,101316.94
2023-05-21T14:09:21.315Z,101321.34
2023-05-21T14:11:47.791Z,101320.53
2023-05-21T14:14:18.833Z,101315.00
2023-05-21T14:16:47.185Z,101316.03
2023-05-21T14:19:14.025Z,101314.00
2023-05-21T14:21:40.910Z,101319.53
2023-05-21T14:24:07.664Z,101323.13
2023-05-21T14:26:36.648Z,101315.06
2023-05-21T14:29:03.169Z,101309.03
2023-05-21T14:31:29.888Z,101304.16
2023-05-21T14:33:56.327Z,101320.09
2023-05-21T14:36:22.791Z,101320.06
2023-05-21T14:38:49.325Z,101319.22
2023-05-21T14:41:15.841Z,101317.66
2023-05-21T14:43:42.347Z,101323.16
2023-05-21T14:46:08.925Z,101323.00
2023-05-21T14:48:35.505Z,101322.84
2023-05-21T14:51:02.015Z,101325.56
2023-05-21T14:53:28.510Z,101310.84
2023-05-21T14:55:55.053Z,101317.69
2023-05-21T14:58:21.538Z,101313.69
2023-05-21T15:00:48.063Z,101313.22
2023-05-21T15:03:14.631Z,101315.78
2023-05-21T15:05:41.234Z,101314.94
2023-05-21T15:08:09.565Z,101311.44
2023-05-21T15:10:36.200Z,101311.94
2023-05-21T15:13:02.734Z,101317.16
2023-05-21T15:15:29.222Z,101307.56
2023-05-21T15:17:57.644Z,101304.09
2023-05-21T15:20:24.269Z,101309.69
2023-05-21T15:22:53.440Z,101309.69
2023-05-21T15:25:21.658Z,101297.78
2023-05-21T15:27:50.418Z,101312.13
2023-05-21T15:30:17.313Z,101304.34
2023-05-21T15:32:43.873Z,101301.06
2023-05-21T15:35:10.586Z,101298.75
2023-05-21T15:37:37.171Z,101298.75
2023-05-21T15:40:04.446Z,101294.28
2023-05-21T15:42:31.796Z,101298.63
2023-05-21T15:44:58.718Z,101297.09
2023-05-21T15:47:25.252Z,101287.13
2023-05-21T15:49:51.840Z,101286.72
2023-05-21T15:52:19.852Z,101278.50
2023-05-21T15:54:46.935Z,101282.69
2023-05-21T15:57:13.469Z,101275.16
2023-05-21T15:59:40.151Z,101268.88
2023-05-21T16:02:07.809Z,101277.88
2023-05-21T16:04:34.609Z,101274.25
2023-05-21T16:07:01.122Z,101268.34
2023-05-21T16:09:27.586Z,101263.59
2023-05-21T16:11:54.066Z,101266.50
2023-05-21T16:14:20.585Z,101260.88
2023-05-21T16:16:47.095Z,101271.31
2023-05-21T16:19:13.664Z,101260.28
2023-05-21T16:21:40.295Z,101256.66
2023-05-21T16:24:06.853Z,101255.47
2023-05-21T16:26:33.322Z,101252.09
2023-05-21T16:29:02.247Z,101260.09
2023-05-21T16:31:28.965Z,101259.53
2023-05-21T16:33:55.716Z,101260.81
2023-05-21T16:36:22.369Z,101264.88
2023-05-21T16:38:48.854Z,101255.50
2023-05-21T16:41:15.525Z,101256.59
2023-05-21T16:43:42.011Z,101263.22
2023-05-21T16:46:08.455Z,101254.50
2023-05-21T16:48:37.354Z,101253.66
2023-05-21T16:51:04.693Z,101258.41
2023-05-21T16:53:31.325Z,101253.28
2023-05-21T16:55:57.863Z,101248.91
2023-05-21T16:58:24.570Z,101255.19
2023-05-21T17:00:51.098Z,101248.16
2023-05-21T17:03:17.920Z,101247.00
2023-05-21T17:05:44.656Z,101251.41
2023-05-21T17:08:11.228Z,101253.78
2023-05-21T17:10:37.691Z,101261.44
2023-05-21T17:13:17.534Z,101257.91
2023-05-21T17:15:44.612Z,101258.72
2023-05-21T17:18:12.025Z,101250.06
2023-05-21T17:20:38.672Z,101256.09
2023-05-21T17:23:05.156Z,101255.53
2023-05-21T17:25:34.143Z,101248.13
2023-05-21T17:28:00.989Z,101244.47
2023-05-21T17:30:27.543Z,101246.09
2023-05-21T17:32:54.618Z,101251.00
2023-05-21T17:35:21.181Z,101243.50
2023-05-21T17:37:48.037Z,101246.34
2023-05-21T17:40:14.701Z,101245.56
2023-05-21T17:42:41.172Z,101248.75
2023-05-21T17:45:08.082Z,101239.78
2023-05-21T17:47:34.704Z,101242.94
2023-05-21T17:50:01.282Z,101251.78
2023-05-21T17:52:27.820Z,101253.03
2023-05-21T17:54:54.401Z,101254.66
2023-05-21T17:57:21.028Z,101251.34
2023-05-21T17:59:47.656Z,101255.09
2023-05-21T18:02:14.185Z,101252.38
2023-05-21T18:04:40.811Z,101260.41
2023-05-21T18:07:07.457Z,101259.28
2023-05-21T18:09:34.367Z,101278.00
2023-05-21T18:12:00.925Z,101274.06
2023-05-21T18:14:28.149Z,101272.50
2023-05-21T18:16:55.004Z,101269.41
2023-05-21T18:19:21.612Z,101256.75
2023-05-21T18:21:49.300Z,101266.84
2023-05-21T18:24:16.206Z,101264.91
2023-05-21T18:26:44.280Z,101267.31
2023-05-21T18:29:11.874Z,101256.28
2023-05-21T18:31:38.603Z,101268.13
2023-05-21T18:34:05.129Z,101261.47
2023-05-21T18:36:38.630Z,101259.75
2023-05-21T18:39:06.985Z,101258.22
2023-05-21T18:41:33.901Z,101265.34
2023-05-21T18:44:03.479Z,101257.41
2023-05-21T18:46:30.122Z,101263.03
2023-05-21T18:48:56.752Z,101255.50
2023-05-21T18:51:23.761Z,101255.94
2023-05-21T18:53:50.234Z,101263.88
2023-05-21T18:56:17.018Z,101262.28
2023-05-21T18:58:43.445Z,101246.06
2023-05-21T19:01:10.327Z,101261.16
2023-05-21T19:03:38.042Z,101260.41
2023-05-21T19:06:04.679Z,101264.03
2023-05-21T19:08:31.122Z,101262.88
2023-05-21T19:10:57.764Z,101252.22
2023-05-21T19:13:24.355Z,101249.03
2023-05-21T19:15:50.888Z,101259.34
2023-05-21T19:18:17.382Z,101249.03
2023-05-21T19:20:43.842Z,101243.47
2023-05-21T19:23:10.549Z,101243.06
2023-05-21T19:25:37.530Z,101249.03
2023-05-21T19:28:04.021Z,101256.97
2023-05-21T19:30:30.602Z,101251.44
2023-05-21T19:32:57.186Z,101260.56
2023-05-21T19:35:23.646Z,101256.56
2023-05-21T19:37:50.140Z,101250.63
2023-05-21T19:40:17.603Z,101258.94
2023-05-21T19:42:44.546Z,101251.44
2023-05-21T19:45:11.673Z,101255.78
2023-05-21T19:47:40.993Z,101253.00
2023-05-21T19:50:08.142Z,101266.53
2023-05-21T19:52:34.665Z,101262.16
2023-05-21T19:55:04.791Z,101262.56
2023-05-21T19:57:32.481Z,101252.25
2023-05-21T19:59:59.100Z,101256.63
2023-05-21T20:02:26.622Z,101254.63
2023-05-21T20:04:56.648Z,101256.22
2023-05-21T20:07:23.758Z,101255.44
2023-05-21T20:09:50.613Z,101251.44
2023-05-21T20:12:17.124Z,101250.63
2023-05-21T20:14:46.674Z,101249.06
2023-05-21T20:17:14.303Z,101254.63
2023-05-21T20:19:41.069Z,101255.03
2023-05-21T20:22:07.655Z,101257.81
2023-05-21T20:24:34.229Z,101255.41
2023-05-21T20:27:01.605Z,101257.03
2023-05-21T20:29:28.751Z,101258.19
2023-05-21T20:31:55.438Z,101250.63
2023-05-21T20:34:22.073Z,101252.19
2023-05-21T20:36:49.462Z,101255.38
2023-05-21T20:39:16.108Z,101258.53
2023-05-21T20:41:44.683Z,101256.53
2023-05-21T20:44:11.811Z,101258.91
2023-05-21T20:46:38.999Z,101262.47
2023-05-21T20:49:05.998Z,101262.81
2023-05-21T20:51:33.090Z,101250.84
2023-05-21T20:53:59.705Z,101264.66
2023-05-21T20:56:40.796Z,101261.09
2023-05-21T20:59:09.976Z,101266.25
2023-05-21T21:01:37.757Z,101266.56
2023-05-21T21:04:04.800Z,101266.94
2023-05-21T21:06:31.858Z,101260.25
2023-05-21T21:08:58.521Z,101270.97
2023-05-21T21:11:25.062Z,101268.19
2023-05-21T21:13:51.863Z,101268.19
2023-05-21T21:16:18.529Z,101264.22
2023-05-21T21:18:46.731Z,101262.59
2023-05-21T21:21:13.634Z,101265.34
2023-05-21T21:23:40.135Z,101266.16
2023-05-21T21:26:06.626Z,101270.50
2023-05-21T21:28:33.106Z,101266.47
2023-05-21T21:30:59.576Z,101273.25
2023-05-21T21:33:26.747Z,101270.13
2023-05-21T21:35:53.331Z,101267.72
2023-05-21T21:38:19.773Z,101267.72
2023-05-21T21:40:46.275Z,101272.44
2023-05-21T21:43:12.801Z,101273.94
2023-05-21T21:45:39.306Z,101268.41
2023-05-21T21:48:06.171Z,101261.59
2023-05-21T21:50:32.729Z,101265.16
2023-05-21T21:52:59.819Z,101267.19
2023-05-21T21:55:26.442Z,101270.78
2023-05-21T21:57:52.977Z,101263.63
2023-05-21T22:00:20.825Z,101271.88
2023-05-21T22:02:47.344Z,101272.72
2023-05-21T22:05:17.040Z,101273.50
2023-05-21T22:07:47.060Z,101274.28
2023-05-21T22:10:17.599Z,101277.84
2023-05-21T22:12:46.092Z,101276.16
2023-05-21T22:15:22.821Z,101286.56
2023-05-21T22:17:49.957Z,101281.81
2023-05-21T22:20:17.655Z,101278.06
2023-05-21T22:22:45.833Z,101280.88
2023-05-21T22:25:12.324Z,101285.38
2023-05-21T22:27:38.919Z,101281.63
2023-05-21T22:30:06.383Z,101287.63
2023-05-21T22:32:32.850Z,101285.63
2023-05-21T22:34:59.333Z,101278.44
2023-05-21T22:37:26.183Z,101271.59
2023-05-21T22:39:52.908Z,101273.50
2023-05-21T22:42:19.560Z,101277.00
2023-05-21T22:44:46.136Z,101274.72
2023-05-21T22:47:13.910Z,101279.91
2023-05-21T22:49:40.642Z,101276.41
2023-05-21T22:52:09.281Z,101270.75
2023-05-21T22:54:36.025Z,101273.09
2023-05-21T22:57:03.080Z,101274.25
2023-05-21T22:59:29.832Z,101277.31
2023-05-21T23:01:56.320Z,101270.81
2023-05-21T23:04:35.737Z,101270.94
2023-05-21T23:07:09.723Z,101265.41
2023-05-21T23:09:36.504Z,101264.72
2023-05-21T23:12:03.319Z,101269.28
2023-05-21T23:14:29.848Z,101270.00
2023-05-21T23:17:01.682Z,101266.47
2023-05-21T23:19:29.199Z,101269.22
2023-05-21T23:21:55.964Z,101261.16
2023-05-21T23:24:22.752Z,101263.69
2023-05-21T23:26:49.445Z,101259.25
2023-05-21T23:29:16.007Z,101257.50
2023-05-21T23:31:42.684Z,101256.28
2023-05-21T23:34:09.530Z,101258.63
2023-05-21T23:36:36.188Z,101253.03
2023-05-21T23:39:02.696Z,101250.19
2023-05-21T23:41:29.411Z,101253.59
2023-05-21T23:43:55.973Z,101257.50
2023-05-21T23:46:22.491Z,101242.69
2023-05-21T23:48:49.118Z,101249.44
2023-05-21T23:51:16.185Z,101246.22
2023-05-21T23:53:42.625Z,101253.81
2023-05-21T23:56:09.094Z,101252.56
2023-05-21T23:58:35.559Z,101245.78
